Time;durP1;ratioP1;P1;durP2;ratioP2;P2;SDS_P1;SDS_P2;PMS_P1;PMS_P2;Temp;Humidity;BMP_temperature;BMP_pressure;BME280_temperature;BME280_humidity;BME280_pressure;Samples;Min_cycle;Max_cycle;Signal;HPM_P1;HPM_P2
2021/06/24 00:01:12;;;;;;;20.15;16.50;;;;;;;23.24;67.27;100621.25;124882;1096;102984;-82
2021/06/24 00:03:41;;;;;;;20.48;16.85;;;;;;;23.20;67.61;100608.88;125020;1096;114989;-82
2021/06/24 00:06:08;;;;;;;17.30;15.58;;;;;;;23.12;67.73;100597.70;125158;1096;103202;-82
2021/06/24 00:08:36;;;;;;;18.65;16.75;;;;;;;23.14;67.75;100602.08;124830;1095;116574;-85
2021/06/24 00:11:19;;;;;;;19.55;17.48;;;;;;;23.17;67.66;100611.84;124715;1095;103156;-82
2021/06/24 00:13:47;;;;;;;22.20;19.65;;;;;;;23.19;67.63;100607.14;124352;1096;103607;-82
2021/06/24 00:16:15;;;;;;;20.70;18.50;;;;;;;23.16;68.14;100615.53;125005;1095;114868;-81
2021/06/24 00:18:42;;;;;;;19.80;17.65;;;;;;;23.11;68.08;100620.42;125199;1095;103012;-82
2021/06/24 00:21:24;;;;;;;24.33;19.07;;;;;;;23.09;68.02;100619.69;125195;1096;114882;-81
2021/06/24 00:23:51;;;;;;;23.27;20.27;;;;;;;23.12;67.51;100625.73;125166;1095;103444;-82
2021/06/24 00:26:19;;;;;;;23.02;20.63;;;;;;;23.15;67.81;100630.98;125068;1096;115133;-81
2021/06/24 00:28:46;;;;;;;21.40;19.30;;;;;;;23.15;67.67;100636.42;124369;1096;103552;-83
2021/06/24 00:31:13;;;;;;;26.38;22.00;;;;;;;23.14;67.90;100628.36;125014;1095;102999;-82
2021/06/24 00:33:42;;;;;;;25.37;22.63;;;;;;;23.11;67.88;100629.45;124739;1096;114941;-81
2021/06/24 00:36:10;;;;;;;25.30;22.68;;;;;;;23.07;67.89;100635.22;125245;1096;103042;-82
2021/06/24 00:38:37;;;;;;;25.88;22.45;;;;;;;23.06;68.17;100631.64;125011;1096;115347;-81
2021/06/24 00:41:12;;;;;;;25.93;21.58;;;;;;;22.97;68.57;100622.33;124605;1096;103459;-82
2021/06/24 00:43:41;;;;;;;22.00;19.90;;;;;;;22.88;68.60;100614.87;125177;1096;103835;-83
2021/06/24 00:46:08;;;;;;;25.18;22.68;;;;;;;22.86;68.84;100614.13;124823;1096;115028;-82
2021/06/24 00:48:35;;;;;;;23.40;20.93;;;;;;;22.91;68.60;100602.91;124889;1096;103084;-82
2021/06/24 00:51:16;;;;;;;27.65;23.65;;;;;;;22.92;68.22;100599.22;125053;1095;114763;-82
2021/06/24 00:53:44;;;;;;;24.50;20.90;;;;;;;22.85;68.65;100601.53;124963;1095;103077;-81
2021/06/24 00:56:27;;;;;;;24.75;22.03;;;;;;;22.78;69.05;100617.41;125037;1096;116743;-82
2021/06/24 00:58:54;;;;;;;24.70;22.10;;;;;;;22.72;69.46;100623.28;125149;1095;102996;-82
2021/06/24 01:01:22;;;;;;;27.73;24.10;;;;;;;22.60;69.52;100627.77;124898;1095;103003;-82
2021/06/24 01:03:49;;;;;;;29.67;24.00;;;;;;;22.65;69.50;100630.16;125057;1096;116064;-83
2021/06/24 01:06:17;;;;;;;25.05;21.10;;;;;;;22.71;69.20;100621.55;125138;1095;103014;-82
2021/06/24 01:08:44;;;;;;;27.45;23.00;;;;;;;22.73;69.30;100633.17;124763;1094;117562;-82
2021/06/24 01:11:12;;;;;;;24.03;21.60;;;;;;;22.68;69.50;100632.64;125113;1095;102963;-82
2021/06/24 01:13:42;;;;;;;24.40;21.90;;;;;;;22.60;69.46;100619.63;125003;1094;103710;-81
2021/06/24 01:16:24;;;;;;;27.33;22.50;;;;;;;22.54;69.75;100623.67;123864;1096;114855;-81
2021/06/24 01:18:51;;;;;;;24.27;21.73;;;;;;;22.57;69.08;100621.72;124331;1096;103578;-81
2021/06/24 01:21:34;;;;;;;28.75;23.35;;;;;;;22.58;69.68;100618.00;124703;1096;115429;-82
2021/06/24 01:24:01;;;;;;;24.43;21.85;;;;;;;22.44;69.97;100610.88;123870;1096;103030;-81
2021/06/24 01:26:29;;;;;;;25.77;22.47;;;;;;;22.32;70.29;100607.18;124211;1096;115158;-81
2021/06/24 01:28:56;;;;;;;24.75;22.03;;;;;;;22.27;70.54;100602.10;124443;1096;103048;-82
2021/06/24 01:31:24;;;;;;;23.60;21.05;;;;;;;22.28;70.25;100597.53;125297;1095;103010;-82
2021/06/24 01:33:51;;;;;;;26.60;22.33;;;;;;;22.36;70.45;100600.58;125158;1096;114894;-83
2021/06/24 01:36:33;;;;;;;23.97;21.13;;;;;;;22.32;70.45;100599.89;125628;1096;101758;-82
2021/06/24 01:39:01;;;;;;;23.85;21.28;;;;;;;22.31;70.28;100594.58;125239;1096;115023;-82
2021/06/24 01:41:29;;;;;;;25.40;22.55;;;;;;;22.28;70.32;100590.25;125232;1096;102999;-82
2021/06/24 01:43:56;;;;;;;24.50;20.73;;;;;;;22.29;70.70;100591.13;125252;1095;103034;-82
2021/06/24 01:46:24;;;;;;;25.13;22.13;;;;;;;22.33;70.58;100595.35;125062;1096;113672;-83
2021/06/24 01:48:52;;;;;;;23.20;20.70;;;;;;;22.32;70.10;100596.33;125235;1096;103016;-82
2021/06/24 01:51:22;;;;;;;26.40;21.00;;;;;;;22.29;70.37;100593.84;125050;1095;113839;-81
2021/06/24 01:54:03;;;;;;;24.60;21.58;;;;;;;22.21;70.48;100587.11;124820;1099;103831;-82
2021/06/24 01:56:31;;;;;;;30.10;22.70;;;;;;;22.20;70.61;100588.08;124784;1099;115257;-82
2021/06/24 01:58:59;;;;;;;25.70;23.15;;;;;;;22.20;70.84;100590.80;124816;1098;103207;-83
2021/06/24 02:01:26;;;;;;;26.53;23.60;;;;;;;22.13;70.99;100592.23;124824;1100;103100;-81
2021/06/24 02:03:54;;;;;;;25.63;21.58;;;;;;;22.11;70.52;100591.48;124596;1098;116435;-82
2021/06/24 02:06:21;;;;;;;23.75;20.05;;;;;;;22.07;71.18;100589.95;124663;1098;104167;-82
2021/06/24 02:08:49;;;;;;;23.07;20.67;;;;;;;22.11;71.04;100596.03;124739;1099;115013;-82
2021/06/24 02:11:16;;;;;;;26.30;23.20;;;;;;;22.17;70.56;100585.60;124716;1098;103383;-81
2021/06/24 02:13:43;;;;;;;26.40;23.57;;;;;;;22.13;71.15;100585.95;124221;1099;103310;-84
2021/06/24 02:16:11;;;;;;;25.60;22.37;;;;;;;22.06;71.01;100585.52;124729;1098;114545;-83
2021/06/24 02:18:54;;;;;;;22.30;20.00;;;;;;;22.03;71.15;100577.58;124693;1100;103086;-82
2021/06/24 02:21:22;;;;;;;24.18;21.58;;;;;;;22.07;71.32;100589.09;124569;1100;117035;-82
2021/06/24 02:23:50;;;;;;;24.73;22.13;;;;;;;22.12;70.96;100576.07;124612;1098;103105;-81
2021/06/24 02:26:17;;;;;;;26.77;23.17;;;;;;;22.11;70.66;100575.22;124712;1098;115803;-83
2021/06/24 02:28:45;;;;;;;24.43;21.93;;;;;;;22.14;70.91;100579.52;124779;1099;103190;-82
2021/06/24 02:31:12;;;;;;;23.50;21.05;;;;;;;22.21;70.63;100576.27;124725;1097;103199;-82
2021/06/24 02:33:40;;;;;;;28.03;22.77;;;;;;;22.18;70.50;100590.05;124280;1096;115624;-82
2021/06/24 02:36:07;;;;;;;27.27;24.03;;;;;;;22.16;70.84;100600.13;125054;1094;103023;-83
2021/06/24 02:38:35;;;;;;;27.40;23.10;;;;;;;22.10;70.95;100599.70;125126;1096;115006;-83
2021/06/24 02:41:16;;;;;;;24.45;21.93;;;;;;;22.17;70.94;100603.73;125116;1096;102989;-82
2021/06/24 02:43:51;;;;;;;25.67;22.87;;;;;;;22.20;70.78;100598.94;124739;1096;103025;-84
2021/06/24 02:46:18;;;;;;;25.33;22.83;;;;;;;22.17;70.86;100599.16;124748;1096;115661;-82
2021/06/24 02:49:00;;;;;;;28.07;22.33;;;;;;;22.10;71.36;100583.44;124920;1096;102996;-81
2021/06/24 02:51:41;;;;;;;24.70;22.13;;;;;;;22.07;71.39;100583.66;124169;1099;116518;-81
2021/06/24 02:54:09;;;;;;;28.55;24.93;;;;;;;22.01;71.61;100582.27;124287;1098;103324;-81
2021/06/24 02:56:40;;;;;;;25.75;23.08;;;;;;;22.08;71.56;100583.55;124217;1097;114925;-81
2021/06/24 02:59:08;;;;;;;27.73;24.30;;;;;;;22.13;71.28;100592.23;124906;1100;103203;-82
2021/06/24 03:01:39;;;;;;;24.53;21.93;;;;;;;22.15;70.97;100592.11;124751;1098;103147;-82
2021/06/24 03:04:07;;;;;;;29.28;25.43;;;;;;;22.18;71.66;100592.77;124511;1098;114770;-81
2021/06/24 03:06:50;;;;;;;27.88;25.00;;;;;;;22.18;71.43;100587.34;124826;1099;103108;-81
2021/06/24 03:09:17;;;;;;;26.33;23.57;;;;;;;22.23;71.63;100594.28;124658;1099;114909;-81
2021/06/24 03:11:59;;;;;;;28.45;24.63;;;;;;;22.32;71.47;100599.89;124654;1099;103252;-81
2021/06/24 03:14:26;;;;;;;27.00;23.40;;;;;;;22.44;70.45;100591.89;124311;1100;115463;-81
2021/06/24 03:16:54;;;;;;;27.73;24.73;;;;;;;22.46;70.82;100590.80;124704;1100;103042;-81
2021/06/24 03:19:21;;;;;;;32.27;22.90;;;;;;;22.45;70.90;100599.05;124648;1100;103106;-81
2021/06/24 03:21:50;;;;;;;26.30;23.35;;;;;;;22.49;70.54;100603.27;124571;1098;115751;-82
2021/06/24 03:24:17;;;;;;;28.33;25.37;;;;;;;22.59;70.71;100614.31;124652;1099;103103;-82
2021/06/24 03:26:44;;;;;;;27.20;24.23;;;;;;;22.64;70.26;100615.70;124583;1098;114929;-83
2021/06/24 03:29:12;;;;;;;26.87;22.20;;;;;;;22.64;70.20;100603.98;124523;1096;103023;-81
2021/06/24 03:31:41;;;;;;;27.73;22.90;;;;;;;22.66;70.63;100600.18;124770;1095;104084;-82
2021/06/24 03:34:08;;;;;;;29.80;24.60;;;;;;;22.71;70.72;100597.11;124588;1095;116412;-82
2021/06/24 03:36:36;;;;;;;25.90;22.13;;;;;;;22.78;70.16;100601.12;124856;1095;103004;-80
2021/06/24 03:39:04;;;;;;;36.17;28.27;;;;;;;22.79;70.09;100597.43;124487;1096;116558;-80
2021/06/24 03:41:45;;;;;;;25.43;22.30;;;;;;;22.74;70.29;100596.91;124882;1095;103037;-81
2021/06/24 03:44:13;;;;;;;33.65;24.65;;;;;;;22.73;70.12;100602.45;124621;1096;115565;-82
2021/06/24 03:46:41;;;;;;;26.27;22.37;;;;;;;22.78;70.54;100594.80;124547;1096;103122;-82
2021/06/24 03:49:09;;;;;;;27.20;22.67;;;;;;;22.82;70.90;100593.63;125057;1095;103027;-82
2021/06/24 03:51:36;;;;;;;26.08;23.02;;;;;;;22.91;70.31;100598.33;124814;1096;114730;-81
2021/06/24 03:54:18;;;;;;;27.07;21.63;;;;;;;22.99;70.10;100589.61;125011;1096;103896;-81
2021/06/24 03:56:46;;;;;;;26.93;22.47;;;;;;;23.01;69.93;100579.51;124733;1094;115501;-82
2021/06/24 03:59:13;;;;;;;29.38;23.90;;;;;;;23.07;70.22;100580.88;125059;1096;103062;-81
2021/06/24 04:01:43;;;;;;;25.83;22.60;;;;;;;23.11;69.75;100577.83;124701;1096;103569;-81
2021/06/24 04:04:11;;;;;;;24.53;21.65;;;;;;;23.15;70.05;100576.64;125002;1096;115057;-82
2021/06/24 04:06:53;;;;;;;24.80;20.17;;;;;;;23.18;69.56;100570.97;124778;1096;103000;-84
2021/06/24 04:09:20;;;;;;;27.23;22.68;;;;;;;23.25;69.15;100565.92;124981;1095;115014;-81
2021/06/24 04:11:48;;;;;;;25.50;22.10;;;;;;;23.26;69.13;100570.38;124673;1095;103044;-82
2021/06/24 04:14:16;;;;;;;25.55;22.40;;;;;;;23.21;69.59;100565.28;124896;1096;115704;-82
2021/06/24 04:16:43;;;;;;;23.57;20.17;;;;;;;23.21;69.21;100559.85;124615;1097;103206;-84
2021/06/24 04:19:27;;;;;;;27.47;21.23;;;;;;;23.31;69.18;100564.58;124783;1096;103049;-81
2021/06/24 04:21:55;;;;;;;28.70;21.68;;;;;;;23.30;70.01;100565.55;124981;1095;115238;-82
2021/06/24 04:24:23;;;;;;;24.20;21.00;;;;;;;23.20;69.92;100576.28;124941;1096;103095;-82
2021/06/24 04:26:50;;;;;;;26.97;20.90;;;;;;;23.17;69.95;100579.23;124719;1096;115064;-81
2021/06/24 04:29:18;;;;;;;24.18;20.38;;;;;;;23.16;70.28;100562.05;125075;1095;103016;-84
2021/06/24 04:31:46;;;;;;;25.93;21.17;;;;;;;23.12;70.01;100554.23;124773;1095;103020;-82
2021/06/24 04:34:14;;;;;;;22.95;20.58;;;;;;;23.08;70.68;100544.59;124415;1096;115038;-81
2021/06/24 04:36:55;;;;;;;28.50;20.95;;;;;;;23.13;70.71;100535.13;124663;1096;103021;-82
2021/06/24 04:39:37;;;;;;;22.17;19.83;;;;;;;23.20;70.73;100540.95;124696;1095;114981;-81
2021/06/24 04:42:15;;;;;;;23.90;20.83;;;;;;;23.20;70.52;100549.99;125111;1096;103001;-82
2021/06/24 04:44:56;;;;;;;24.33;20.80;;;;;;;23.13;70.54;100564.13;124800;1095;114949;-82
2021/06/24 04:47:24;;;;;;;23.10;20.87;;;;;;;23.13;71.03;100556.86;124681;1096;103157;-82
2021/06/24 04:49:51;;;;;;;22.55;20.13;;;;;;;23.16;70.94;100570.20;124783;1095;103306;-82
2021/06/24 04:52:19;;;;;;;28.70;20.90;;;;;;;23.23;71.13;100578.75;124920;1095;114904;-82
2021/06/24 04:54:46;;;;;;;26.13;20.77;;;;;;;23.25;71.04;100575.94;124765;1096;103017;-81
2021/06/24 04:57:13;;;;;;;24.17;20.27;;;;;;;23.27;71.28;100577.56;124806;1095;115491;-82
2021/06/24 04:59:41;;;;;;;23.50;20.83;;;;;;;23.29;70.63;100572.85;124708;1096;103126;-82
2021/06/24 05:02:08;;;;;;;24.37;20.80;;;;;;;23.44;70.27;100568.07;124777;1096;115590;-82
2021/06/24 05:04:36;;;;;;;24.30;21.33;;;;;;;23.57;69.75;100564.41;124591;1095;103135;-81
2021/06/24 05:07:08;;;;;;;24.20;20.70;;;;;;;23.66;69.50;100544.66;125131;1096;103044;-82
2021/06/24 05:09:50;;;;;;;30.90;23.67;;;;;;;23.71;69.12;100532.42;124730;1095;114504;-81
2021/06/24 05:12:17;;;;;;;30.43;22.05;;;;;;;23.76;69.04;100526.59;124659;1095;103154;-83
2021/06/24 05:14:45;;;;;;;27.83;21.37;;;;;;;23.81;69.07;100524.38;124793;1096;115046;-82
2021/06/24 05:17:13;;;;;;;27.67;20.37;;;;;;;23.86;68.99;100524.88;124903;1096;103132;-82
2021/06/24 05:19:55;;;;;;;27.95;22.83;;;;;;;23.93;69.11;100522.56;125429;1095;103020;-83
2021/06/24 05:22:23;;;;;;;29.17;22.07;;;;;;;23.86;68.83;100524.88;124730;1096;114635;-82
2021/06/24 05:25:05;;;;;;;27.28;20.63;;;;;;;23.81;69.18;100537.13;124849;1096;103773;-83
2021/06/24 05:27:32;;;;;;;29.97;22.40;;;;;;;23.88;69.17;100519.31;124818;1096;115167;-82
2021/06/24 05:30:00;;;;;;;25.83;20.45;;;;;;;23.95;68.98;100528.76;124884;1095;103100;-83
2021/06/24 05:32:27;;;;;;;23.58;21.08;;;;;;;23.98;69.22;100530.36;124727;1095;114603;-83
2021/06/24 05:35:09;;;;;;;26.50;21.80;;;;;;;24.17;68.61;100532.45;124826;1096;103119;-84
2021/06/24 05:37:36;;;;;;;23.63;20.90;;;;;;;24.33;67.71;100524.74;124772;1096;103017;-82
2021/06/24 05:40:17;;;;;;;24.90;20.67;;;;;;;24.38;68.24;100514.34;124727;1096;114554;-83
2021/06/24 05:42:45;;;;;;;21.80;19.20;;;;;;;24.48;68.75;100503.54;125092;1096;103076;-82
2021/06/24 05:45:13;;;;;;;21.53;19.30;;;;;;;24.60;68.26;100514.41;125079;1096;114685;-81
2021/06/24 05:47:41;;;;;;;20.35;18.23;;;;;;;24.64;67.17;100514.05;124804;1096;103047;-82
2021/06/24 05:50:23;;;;;;;26.25;20.40;;;;;;;24.58;67.54;100524.55;124736;1096;115352;-83
2021/06/24 05:52:53;;;;;;;23.17;20.87;;;;;;;24.56;67.08;100534.73;124914;1096;103576;-82
2021/06/24 05:55:47;;;;;;;22.70;20.30;;;;;;;24.58;67.06;100535.45;127176;1095;102919;-83
2021/06/24 05:58:10;;;;;;;25.53;20.28;;;;;;;24.72;66.51;100534.34;126437;1095;115697;-84
2021/06/24 06:00:39;;;;;;;23.20;20.73;;;;;;;24.76;66.38;100512.16;124862;1095;103353;-84
2021/06/24 06:03:09;;;;;;;22.27;19.63;;;;;;;24.87;66.45;100513.96;124643;1096;114733;-84
2021/06/24 06:05:37;;;;;;;22.25;18.65;;;;;;;25.06;66.43;100505.09;125101;1095;103019;-82
2021/06/24 06:08:06;;;;;;;22.87;19.87;;;;;;;25.24;65.65;100502.63;124563;1096;115697;-83
2021/06/24 06:10:35;;;;;;;23.23;20.85;;;;;;;25.20;65.34;100507.50;125113;1096;102999;-83
2021/06/24 06:13:05;;;;;;;25.40;22.63;;;;;;;25.16;65.75;100494.26;125486;1096;103019;-82
2021/06/24 06:15:34;;;;;;;20.95;18.70;;;;;;;25.23;66.36;100500.89;125032;1096;114764;-83
2021/06/24 06:18:13;;;;;;;21.37;19.13;;;;;;;25.20;65.65;100517.52;125288;1095;102923;-83
2021/06/24 06:20:42;;;;;;;19.93;17.23;;;;;;;25.13;67.06;100491.81;124793;1096;115355;-85
2021/06/24 06:23:10;;;;;;;21.23;18.70;;;;;;;25.05;66.26;100478.84;124926;1094;103174;-83
2021/06/24 06:25:52;;;;;;;21.20;16.97;;;;;;;24.95;66.87;100477.89;125062;1096;103785;-83
2021/06/24 06:28:21;;;;;;;20.30;17.13;;;;;;;24.94;66.59;100482.49;124833;1096;116102;-83
2021/06/24 06:30:50;;;;;;;19.30;15.60;;;;;;;24.97;65.95;100465.02;124928;1096;103000;-82
2021/06/24 06:33:19;;;;;;;17.97;15.20;;;;;;;24.81;66.35;100449.13;124866;1096;115302;-84
2021/06/24 06:35:49;;;;;;;20.30;15.70;;;;;;;24.72;66.44;100442.59;124590;1096;103003;-83
2021/06/24 06:38:19;;;;;;;18.10;13.53;;;;;;;24.61;66.07;100435.31;124497;1096;115067;-83
2021/06/24 06:40:48;;;;;;;20.40;14.17;;;;;;;24.52;66.41;100442.42;125073;1095;103006;-84
2021/06/24 06:43:19;;;;;;;17.55;14.23;;;;;;;24.48;67.11;100451.81;125381;1095;102997;-83
2021/06/24 06:45:47;;;;;;;19.17;14.67;;;;;;;24.50;67.46;100455.28;124980;1095;115395;-82
2021/06/24 06:48:16;;;;;;;27.07;15.23;;;;;;;24.41;67.28;100452.48;125193;1095;103031;-82
2021/06/24 06:50:44;;;;;;;18.83;13.30;;;;;;;24.48;66.96;100470.02;125621;1096;115327;-83
2021/06/24 06:53:26;;;;;;;16.38;13.45;;;;;;;24.44;66.80;100528.44;125694;1095;103158;-83
2021/06/24 06:56:11;;;;;;;20.00;15.30;;;;;;;24.33;68.95;100586.50;124939;1096;115210;-81
2021/06/24 06:58:40;;;;;;;33.10;24.73;;;;;;;24.09;71.57;100598.37;124334;1095;103112;-82
2021/06/24 07:01:08;;;;;;;40.68;26.80;;;;;;;23.87;72.13;100550.21;125254;1096;103153;-80
2021/06/24 07:03:36;;;;;;;31.40;24.23;;;;;;;23.62;73.26;100594.80;124661;1095;115083;-81
2021/06/24 07:06:04;;;;;;;34.13;26.07;;;;;;;23.34;74.07;100622.29;124783;1096;103024;-82
2021/06/24 07:08:31;;;;;;;29.40;26.28;;;;;;;23.24;74.69;100593.22;124665;1096;115379;-82
2021/06/24 07:10:59;;;;;;;25.90;16.50;;;;;;;23.11;74.68;100528.94;124795;1096;103122;-88
2021/06/24 07:13:26;;;;;;;18.53;14.60;;;;;;;22.99;73.99;100538.00;125156;1096;103050;-81
2021/06/24 07:15:57;;;;;;;20.13;14.38;;;;;;;22.84;74.91;100644.09;124654;1096;114739;-81
2021/06/24 07:18:24;;;;;;;17.98;10.70;;;;;;;22.68;75.29;100695.09;124850;1096;103019;-82
2021/06/24 07:20:56;;;;;;;15.03;10.00;;;;;;;22.53;75.64;100706.06;124605;1096;114599;-83
2021/06/24 07:23:24;;;;;;;11.83;8.50;;;;;;;22.26;77.12;100698.03;125309;1095;103019;-79
2021/06/24 07:25:51;;;;;;;10.00;7.08;;;;;;;21.87;76.46;100670.00;124710;1095;103112;-80
2021/06/24 07:28:19;;;;;;;5.30;4.70;;;;;;;21.60;75.98;100670.08;124546;1096;114371;-81
2021/06/24 07:30:49;;;;;;;7.78;3.80;;;;;;;21.32;75.53;100680.05;124693;1096;103045;-81
2021/06/24 07:33:33;;;;;;;6.33;4.57;;;;;;;21.20;76.29;100690.71;124678;1095;114606;-81
2021/06/24 07:36:02;;;;;;;17.93;4.67;;;;;;;21.06;76.32;100685.37;124675;1096;102970;-82
2021/06/24 07:38:29;;;;;;;8.45;5.63;;;;;;;20.99;76.42;100692.13;124820;1096;115328;-81
2021/06/24 07:40:57;;;;;;;8.63;5.70;;;;;;;20.94;76.72;100689.74;125414;1096;103031;-81
2021/06/24 07:43:39;;;;;;;11.00;6.10;;;;;;;20.93;77.46;100711.52;125115;1096;103149;-82
2021/06/24 07:46:06;;;;;;;11.30;6.73;;;;;;;20.82;77.51;100710.36;124410;1096;114681;-81
2021/06/24 07:48:34;;;;;;;10.78;6.83;;;;;;;20.79;77.59;100701.55;124463;1095;103071;-81
2021/06/24 07:51:02;;;;;;;9.43;5.97;;;;;;;20.81;77.98;100669.86;124750;1096;116467;-82
2021/06/24 07:53:32;;;;;;;11.63;7.40;;;;;;;20.88;77.91;100665.77;124799;1095;102142;-81
2021/06/24 07:56:00;;;;;;;16.83;8.80;;;;;;;20.85;77.61;100656.00;124425;1095;103116;-81
2021/06/24 07:58:28;;;;;;;12.30;7.33;;;;;;;20.87;78.20;100632.42;124641;1095;116433;-81
2021/06/24 08:01:00;;;;;;;16.93;8.40;;;;;;;20.89;77.92;100586.30;124737;1096;103380;-81
2021/06/24 08:03:28;;;;;;;12.00;8.08;;;;;;;20.92;77.65;100569.83;124538;1096;115542;-81
2021/06/24 08:05:55;;;;;;;9.95;7.75;;;;;;;20.95;78.00;100566.05;124636;1096;103127;-82
2021/06/24 08:08:23;;;;;;;14.00;8.05;;;;;;;20.77;78.03;100538.39;124933;1096;114533;-84
2021/06/24 08:10:51;;;;;;;13.30;8.45;;;;;;;20.67;79.22;100516.44;124353;1096;103010;-83
2021/06/24 08:13:20;;;;;;;14.30;9.00;;;;;;;20.67;79.37;100513.73;124757;1096;102965;-81
2021/06/24 08:15:48;;;;;;;11.55;7.63;;;;;;;20.69;79.27;100452.30;125090;1095;114345;-79
2021/06/24 08:18:17;;;;;;;11.10;8.07;;;;;;;20.69;80.13;100395.47;124778;1096;103118;-81
2021/06/24 08:20:45;;;;;;;14.50;8.00;;;;;;;20.59;80.92;100367.27;124726;1096;116772;-82
2021/06/24 08:23:12;;;;;;;9.70;8.63;;;;;;;20.56;80.44;100330.46;124768;1096;103000;-80
2021/06/24 08:25:41;;;;;;;9.93;8.37;;;;;;;20.57;80.67;100310.55;124376;1095;103306;-80
2021/06/24 08:28:10;;;;;;;8.10;6.85;;;;;;;20.60;80.33;100293.24;124664;1095;114185;-82
2021/06/24 08:30:43;;;;;;;11.80;7.73;;;;;;;20.62;80.62;100286.75;125036;1096;103079;-82
2021/06/24 08:33:12;;;;;;;9.55;7.10;;;;;;;20.63;80.47;100272.25;124507;1096;115185;-84
2021/06/24 08:35:54;;;;;;;8.38;6.05;;;;;;;20.51;81.11;100283.92;124746;1095;103172;-82
2021/06/24 08:38:22;;;;;;;7.18;5.55;;;;;;;20.37;81.88;100315.50;124716;1096;115051;-82
2021/06/24 08:40:58;;;;;;;9.20;6.60;;;;;;;20.29;82.77;100339.50;124929;1096;102958;-81
2021/06/24 08:43:26;;;;;;;8.98;7.03;;;;;;;20.30;82.17;100330.43;124543;1096;103122;-83
2021/06/24 08:46:01;;;;;;;9.63;7.03;;;;;;;20.31;82.63;100342.10;124792;1096;115175;-82
2021/06/24 08:48:36;;;;;;;5.73;4.47;;;;;;;20.24;82.71;100359.73;124475;1096;103044;-81
2021/06/24 08:51:07;;;;;;;8.50;5.90;;;;;;;20.18;82.78;100358.31;124554;1096;114574;-83
2021/06/24 08:53:49;;;;;;;6.35;4.05;;;;;;;20.11;82.15;100349.72;124798;1096;103000;-86
2021/06/24 08:56:17;;;;;;;11.13;5.23;;;;;;;20.18;82.18;100350.20;125459;1096;114712;-84
2021/06/24 08:58:46;;;;;;;9.23;5.48;;;;;;;20.20;81.89;100337.42;124921;1096;103131;-81
2021/06/24 09:01:14;;;;;;;11.13;5.67;;;;;;;20.24;82.09;100344.36;124871;1096;103370;-80
2021/06/24 09:03:45;;;;;;;6.20;4.10;;;;;;;20.26;81.68;100371.29;124479;1096;116965;-84
2021/06/24 09:06:13;;;;;;;10.30;5.70;;;;;;;20.28;81.97;100378.33;124860;1096;103154;-83
2021/06/24 09:08:42;;;;;;;8.83;4.30;;;;;;;20.28;81.69;100389.15;124685;1096;114883;-83
2021/06/24 09:11:21;;;;;;;7.45;5.15;;;;;;;20.30;81.78;100394.45;124852;1096;102952;-84
2021/06/24 09:14:13;;;;;;;6.27;4.93;;;;;;;20.29;82.05;100390.04;125405;1096;102894;-80
2021/06/24 09:16:42;;;;;;;6.20;3.93;;;;;;;20.31;81.79;100396.19;124610;1095;114713;-80
2021/06/24 09:19:24;;;;;;;5.58;3.88;;;;;;;20.30;82.19;100437.72;124877;1095;103180;-85
2021/06/24 09:22:12;;;;;;;11.63;5.20;;;;;;;20.31;81.85;100450.28;124568;1096;115176;-82
2021/06/24 09:24:41;;;;;;;6.95;4.23;;;;;;;20.32;81.24;100470.96;124718;1096;103036;-81
2021/06/24 09:27:18;;;;;;;7.23;4.57;;;;;;;20.29;81.04;100485.55;124733;1095;115459;-86
2021/06/24 09:30:04;;;;;;;14.67;5.53;;;;;;;20.45;81.78;100474.59;124650;1096;103194;-81
2021/06/24 09:32:35;;;;;;;8.33;4.93;;;;;;;20.62;81.05;100488.81;124619;1096;114748;-80
2021/06/24 09:35:05;;;;;;;7.45;5.03;;;;;;;20.75;80.17;100507.84;124485;1096;103019;-82
2021/06/24 09:38:00;;;;;;;7.80;4.90;;;;;;;20.94;80.71;100505.63;124419;1096;103020;-80
2021/06/24 09:40:47;;;;;;;11.38;5.53;;;;;;;21.32;80.52;100507.52;124729;1096;114754;-82
2021/06/24 09:43:28;;;;;;;15.63;5.30;;;;;;;21.79;79.65;100513.31;124538;1099;102941;-81
2021/06/24 09:46:18;;;;;;;10.10;5.30;;;;;;;22.12;78.89;100521.81;124219;1098;116335;-81
2021/06/24 09:48:51;;;;;;;5.77;3.80;;;;;;;22.21;76.59;100521.14;124075;1096;102964;-84
2021/06/24 09:51:25;;;;;;;9.13;5.47;;;;;;;22.32;77.08;100521.20;124285;1096;114628;-81
2021/06/24 09:54:13;;;;;;;7.83;5.60;;;;;;;22.80;76.81;100528.53;124375;1095;103071;-80
2021/06/24 09:56:43;;;;;;;8.28;5.88;;;;;;;23.23;74.98;100526.27;124695;1095;114866;-80
2021/06/24 09:59:13;;;;;;;13.63;5.63;;;;;;;23.67;74.16;100533.66;124999;1096;103116;-83
2021/06/24 10:01:52;;;;;;;8.85;5.58;;;;;;;24.19;73.07;100547.66;125128;1096;103022;-84
2021/06/24 10:04:27;;;;;;;7.90;5.57;;;;;;;24.89;71.00;100552.84;124987;1096;113963;-81
2021/06/24 10:07:03;;;;;;;8.98;4.63;;;;;;;25.73;69.78;100545.75;124980;1095;102972;-82
2021/06/24 10:09:46;;;;;;;9.60;5.80;;;;;;;26.30;65.13;100548.89;127194;1096;113505;-84
2021/06/24 10:12:20;;;;;;;8.70;4.68;;;;;;;26.92;64.26;100546.00;126976;1096;102945;-83
2021/06/24 10:14:48;;;;;;;9.15;4.60;;;;;;;27.33;61.85;100543.97;124607;1096;114499;-82
2021/06/24 10:17:16;;;;;;;10.53;5.58;;;;;;;27.60;59.63;100542.36;124525;1096;103086;-82
2021/06/24 10:19:45;;;;;;;7.60;4.57;;;;;;;28.12;58.35;100550.13;124851;1096;103098;-82
2021/06/24 10:22:32;;;;;;;9.03;5.85;;;;;;;28.66;59.20;100550.30;124616;1095;114767;-82
2021/06/24 10:25:05;;;;;;;12.80;5.63;;;;;;;29.33;57.35;100552.66;124393;1096;103016;-82
2021/06/24 10:27:35;;;;;;;5.03;4.40;;;;;;;30.05;51.74;100543.38;124795;1095;116563;-83
2021/06/24 10:30:18;;;;;;;7.53;5.27;;;;;;;30.34;50.48;100542.98;124685;1096;103796;-82
2021/06/24 10:33:16;;;;;;;11.65;4.73;;;;;;;30.58;51.72;100535.88;124139;1100;116026;-83
2021/06/24 10:35:49;;;;;;;9.08;6.15;;;;;;;30.60;50.95;100522.81;124757;1099;103131;-80
2021/06/24 10:38:19;;;;;;;8.03;5.08;;;;;;;31.20;51.23;100526.34;124587;1099;103164;-82
2021/06/24 10:41:02;;;;;;;7.65;5.38;;;;;;;31.34;48.96;100526.50;123977;1100;114350;-81
2021/06/24 10:43:45;;;;;;;5.15;4.48;;;;;;;31.64;50.13;100521.34;124100;1097;103160;-81
2021/06/24 10:46:17;;;;;;;6.73;5.05;;;;;;;31.85;50.12;100512.47;124552;1096;114722;-81
2021/06/24 10:49:22;;;;;;;7.45;4.10;;;;;;;32.31;46.42;100513.69;124464;1099;103086;-82
2021/06/24 10:51:50;;;;;;;6.75;3.88;;;;;;;32.34;45.33;100505.08;123752;1100;115028;-82
2021/06/24 10:54:44;;;;;;;7.13;4.25;;;;;;;32.31;47.63;100503.55;124163;1098;103093;-82
2021/06/24 10:57:36;;;;;;;8.93;5.27;;;;;;;32.27;46.30;100507.70;124123;1099;114683;-82
2021/06/24 11:00:41;;;;;;;9.30;3.90;;;;;;;32.60;47.36;100510.24;124105;1098;103200;-81
2021/06/24 11:03:12;;;;;;;5.60;3.53;;;;;;;32.66;47.92;100506.77;124043;1098;114579;-82
2021/06/24 11:05:50;;;;;;;7.55;4.35;;;;;;;32.23;47.14;100505.47;124402;1098;103185;-81
2021/06/24 11:08:29;;;;;;;6.33;3.70;;;;;;;31.58;47.89;100501.88;124053;1098;103066;-82
2021/06/24 11:11:14;;;;;;;9.85;3.80;;;;;;;30.98;48.75;100495.72;123524;1097;103075;-83
2021/06/24 11:13:50;;;;;;;6.73;4.33;;;;;;;30.29;51.16;100498.66;123674;1100;103542;-82
2021/06/24 11:16:19;;;;;;;7.45;4.15;;;;;;;29.98;49.91;100494.59;124005;1100;114656;-84
2021/06/24 11:18:55;;;;;;;6.33;3.95;;;;;;;29.56;51.69;100483.53;123865;1100;103188;-81
2021/06/24 11:21:28;;;;;;;7.70;4.45;;;;;;;29.30;51.93;100487.16;123750;1100;116937;-83